sensor_id;sensor_type;location;lat;lon;timestamp;pressure;altitude;pressure_sealevel;temperature;humidity
36234;BME280;43467;50.890;5.982;2023-02-28T00:01:10;101487.38;;;4.56;52.58
36234;BME280;43467;50.890;5.982;2023-02-28T00:03:35;101490.84;;;4.61;52.87
36234;BME280;43467;50.890;5.982;2023-02-28T00:06:03;101490.84;;;4.57;52.73
36234;BME280;43467;50.890;5.982;2023-02-28T00:08:29;101494.34;;;4.53;52.46
36234;BME280;43467;50.890;5.982;2023-02-28T00:10:54;101496.09;;;4.58;52.47
36234;BME280;43467;50.890;5.982;2023-02-28T00:13:19;101495.22;;;4.52;52.65
36234;BME280;43467;50.890;5.982;2023-02-28T00:15:45;101489.09;;;4.47;52.77
36234;BME280;43467;50.890;5.982;2023-02-28T00:18:11;101492.59;;;4.53;52.93
36234;BME280;43467;50.890;5.982;2023-02-28T00:20:37;101496.97;;;4.54;52.62
36234;BME280;43467;50.890;5.982;2023-02-28T00:23:02;101491.72;;;4.57;52.72
36234;BME280;43467;50.890;5.982;2023-02-28T00:25:27;101490.84;;;4.61;52.44
36234;BME280;43467;50.890;5.982;2023-02-28T00:27:53;101491.72;;;4.68;52.30
36234;BME280;43467;50.890;5.982;2023-02-28T00:30:20;101496.94;;;4.65;52.70
36234;BME280;43467;50.890;5.982;2023-02-28T00:32:47;101489.06;;;4.65;52.31
36234;BME280;43467;50.890;5.982;2023-02-28T00:35:13;101492.59;;;4.68;51.94
36234;BME280;43467;50.890;5.982;2023-02-28T00:37:38;101478.59;;;4.54;52.47
36234;BME280;43467;50.890;5.982;2023-02-28T00:40:05;101490.84;;;4.57;52.45
36234;BME280;43467;50.890;5.982;2023-02-28T00:42:31;101497.81;;;4.61;52.28
36234;BME280;43467;50.890;5.982;2023-02-28T00:44:57;101502.22;;;4.56;52.50
36234;BME280;43467;50.890;5.982;2023-02-28T00:47:22;101491.72;;;4.56;52.30
36234;BME280;43467;50.890;5.982;2023-02-28T00:49:48;101495.22;;;4.58;52.71
36234;BME280;43467;50.890;5.982;2023-02-28T00:52:13;101503.94;;;4.52;52.71
36234;BME280;43467;50.890;5.982;2023-02-28T00:54:38;101505.72;;;4.46;52.98
36234;BME280;43467;50.890;5.982;2023-02-28T00:57:04;101508.34;;;4.50;52.44
36234;BME280;43467;50.890;5.982;2023-02-28T00:59:29;101494.34;;;4.45;52.74
36234;BME280;43467;50.890;5.982;2023-02-28T01:01:54;101490.84;;;4.40;52.89
36234;BME280;43467;50.890;5.982;2023-02-28T01:04:20;101509.22;;;4.43;52.49
36234;BME280;43467;50.890;5.982;2023-02-28T01:06:45;101499.59;;;4.33;52.56
36234;BME280;43467;50.890;5.982;2023-02-28T01:09:11;101508.34;;;4.40;52.75
36234;BME280;43467;50.890;5.982;2023-02-28T01:11:37;101506.59;;;4.34;53.11
36234;BME280;43467;50.890;5.982;2023-02-28T01:14:02;101503.97;;;4.33;53.24
36234;BME280;43467;50.890;5.982;2023-02-28T01:16:29;101501.34;;;4.25;52.97
36234;BME280;43467;50.890;5.982;2023-02-28T01:18:55;101512.69;;;4.29;52.90
36234;BME280;43467;50.890;5.982;2023-02-28T01:21:22;101513.59;;;4.23;52.93
36234;BME280;43467;50.890;5.982;2023-02-28T01:23:48;101509.22;;;4.22;52.90
36234;BME280;43467;50.890;5.982;2023-02-28T01:26:21;101509.22;;;4.24;52.74
36234;BME280;43467;50.890;5.982;2023-02-28T01:28:48;101518.84;;;4.28;52.72
36234;BME280;43467;50.890;5.982;2023-02-28T01:31:14;101516.22;;;4.28;52.35
36234;BME280;43467;50.890;5.982;2023-02-28T01:33:40;101510.09;;;4.22;52.55
36234;BME280;43467;50.890;5.982;2023-02-28T01:36:09;101511.81;;;4.25;52.41
36234;BME280;43467;50.890;5.982;2023-02-28T01:38:35;101507.47;;;4.22;52.48
36234;BME280;43467;50.890;5.982;2023-02-28T01:41:00;101511.81;;;4.25;52.56
36234;BME280;43467;50.890;5.982;2023-02-28T01:43:31;101508.34;;;4.18;52.18
36234;BME280;43467;50.890;5.982;2023-02-28T01:45:58;101502.22;;;4.18;52.25
36234;BME280;43467;50.890;5.982;2023-02-28T01:48:37;101501.34;;;4.17;52.50
36234;BME280;43467;50.890;5.982;2023-02-28T01:51:53;101498.72;;;4.13;52.59
36234;BME280;43467;50.890;5.982;2023-02-28T01:53:56;101495.25;;;4.11;52.47
36234;BME280;43467;50.890;5.982;2023-02-28T01:56:27;101493.50;;;4.14;52.33
36234;BME280;43467;50.890;5.982;2023-02-28T01:58:54;101492.63;;;4.11;52.07
36234;BME280;43467;50.890;5.982;2023-02-28T02:01:21;101495.22;;;4.06;52.39
36234;BME280;43467;50.890;5.982;2023-02-28T02:03:56;101490.88;;;4.07;52.48
36234;BME280;43467;50.890;5.982;2023-02-28T02:06:25;101492.59;;;4.05;52.10
36234;BME280;43467;50.890;5.982;2023-02-28T02:08:52;101490.00;;;4.03;52.43
36234;BME280;43467;50.890;5.982;2023-02-28T02:11:19;101490.00;;;4.06;52.35
36234;BME280;43467;50.890;5.982;2023-02-28T02:17:13;101485.59;;;4.13;52.33
36234;BME280;43467;50.890;5.982;2023-02-28T02:19:53;101483.88;;;4.07;52.03
36234;BME280;43467;50.890;5.982;2023-02-28T02:30:45;101479.50;;;4.12;52.24
36234;BME280;43467;50.890;5.982;2023-02-28T02:35:59;101476.00;;;4.13;51.88
36234;BME280;43467;50.890;5.982;2023-02-28T02:41:15;101472.50;;;4.10;52.01
36234;BME280;43467;50.890;5.982;2023-02-28T02:44:02;101470.75;;;4.06;52.00
36234;BME280;43467;50.890;5.982;2023-02-28T02:46:41;101466.38;;;3.97;52.10
36234;BME280;43467;50.890;5.982;2023-02-28T02:49:13;101471.63;;;3.91;52.56
36234;BME280;43467;50.890;5.982;2023-02-28T02:51:41;101469.00;;;3.93;52.72
36234;BME280;43467;50.890;5.982;2023-02-28T02:54:15;101467.25;;;3.93;52.81
36234;BME280;43467;50.890;5.982;2023-02-28T02:56:42;101462.03;;;3.99;52.12
36234;BME280;43467;50.890;5.982;2023-02-28T02:59:11;101469.03;;;3.91;52.47
36234;BME280;43467;50.890;5.982;2023-02-28T03:01:39;101466.41;;;3.91;52.69
36234;BME280;43467;50.890;5.982;2023-02-28T03:04:13;101455.88;;;3.88;52.53
36234;BME280;43467;50.890;5.982;2023-02-28T03:06:41;101455.88;;;3.73;53.26
36234;BME280;43467;50.890;5.982;2023-02-28T03:09:06;101433.13;;;3.51;53.84
36234;BME280;43467;50.890;5.982;2023-02-28T03:11:32;101448.88;;;3.60;53.65
36234;BME280;43467;50.890;5.982;2023-02-28T03:14:19;101453.25;;;3.73;53.31
36234;BME280;43467;50.890;5.982;2023-02-28T03:16:59;101450.66;;;3.85;53.27
36234;BME280;43467;50.890;5.982;2023-02-28T03:25:15;101463.75;;;3.73;53.04
36234;BME280;43467;50.890;5.982;2023-02-28T03:28:10;101466.34;;;3.73;53.12
36234;BME280;43467;50.890;5.982;2023-02-28T03:30:43;101470.72;;;3.77;52.77
36234;BME280;43467;50.890;5.982;2023-02-28T03:33:13;101470.72;;;3.74;52.70
36234;BME280;43467;50.890;5.982;2023-02-28T03:35:43;101474.22;;;3.73;53.11
36234;BME280;43467;50.890;5.982;2023-02-28T03:38:22;101469.84;;;3.69;52.74
36234;BME280;43467;50.890;5.982;2023-02-28T03:41:00;101466.34;;;3.71;52.88
36234;BME280;43467;50.890;5.982;2023-02-28T03:43:30;101468.09;;;3.69;53.45
36234;BME280;43467;50.890;5.982;2023-02-28T03:45:59;101471.59;;;3.71;53.25
36234;BME280;43467;50.890;5.982;2023-02-28T03:48:40;101472.47;;;3.69;53.33
36234;BME280;43467;50.890;5.982;2023-02-28T03:51:10;101468.06;;;3.63;53.23
36234;BME280;43467;50.890;5.982;2023-02-28T03:53:42;101468.09;;;3.68;53.28
36234;BME280;43467;50.890;5.982;2023-02-28T03:56:52;101482.94;;;3.75;53.36
36234;BME280;43467;50.890;5.982;2023-02-28T03:59:21;101475.94;;;3.68;54.00
36234;BME280;43467;50.890;5.982;2023-02-28T04:01:49;101466.34;;;3.64;54.00
36234;BME280;43467;50.890;5.982;2023-02-28T04:04:16;101475.06;;;3.64;54.03
36234;BME280;43467;50.890;5.982;2023-02-28T04:06:43;101475.06;;;3.58;54.40
36234;BME280;43467;50.890;5.982;2023-02-28T04:09:11;101476.78;;;3.56;54.56
36234;BME280;43467;50.890;5.982;2023-02-28T04:11:38;101467.19;;;3.52;54.40
36234;BME280;43467;50.890;5.982;2023-02-28T04:14:06;101472.41;;;3.46;54.88
36234;BME280;43467;50.890;5.982;2023-02-28T04:16:34;101465.44;;;3.50;54.98
36234;BME280;43467;50.890;5.982;2023-02-28T04:19:01;101470.66;;;3.47;54.98
36234;BME280;43467;50.890;5.982;2023-02-28T04:21:35;101463.69;;;3.49;55.14
36234;BME280;43467;50.890;5.982;2023-02-28T04:24:02;101468.03;;;3.51;54.98
36234;BME280;43467;50.890;5.982;2023-02-28T04:26:33;101466.31;;;3.59;55.02
36234;BME280;43467;50.890;5.982;2023-02-28T04:29:02;101461.09;;;3.61;55.19
36234;BME280;43467;50.890;5.982;2023-02-28T04:31:27;101470.69;;;3.53;55.42
36234;BME280;43467;50.890;5.982;2023-02-28T04:33:53;101471.53;;;3.47;55.56
36234;BME280;43467;50.890;5.982;2023-02-28T04:36:19;101478.50;;;3.47;55.34
36234;BME280;43467;50.890;5.982;2023-02-28T04:38:44;101482.00;;;3.46;55.42
36234;BME280;43467;50.890;5.982;2023-02-28T04:41:10;101478.50;;;3.47;55.50
36234;BME280;43467;50.890;5.982;2023-02-28T04:43:36;101466.25;;;3.32;55.68
36234;BME280;43467;50.890;5.982;2023-02-28T04:46:03;101485.47;;;3.37;55.44
36234;BME280;43467;50.890;5.982;2023-02-28T04:48:30;101486.31;;;3.25;56.45
36234;BME280;43467;50.890;5.982;2023-02-28T04:51:00;101489.78;;;3.21;56.35
36234;BME280;43467;50.890;5.982;2023-02-28T04:53:27;101481.91;;;3.20;56.37
36234;BME280;43467;50.890;5.982;2023-02-28T04:55:53;101488.91;;;3.24;56.17
36234;BME280;43467;50.890;5.982;2023-02-28T04:58:18;101493.28;;;3.30;56.50
36234;BME280;43467;50.890;5.982;2023-02-28T05:00:44;101493.25;;;3.23;56.75
36234;BME280;43467;50.890;5.982;2023-02-28T05:03:09;101499.38;;;3.21;56.40
36234;BME280;43467;50.890;5.982;2023-02-28T05:05:35;101495.03;;;3.31;56.87
36234;BME280;43467;50.890;5.982;2023-02-28T05:08:00;101495.03;;;3.31;56.94
36234;BME280;43467;50.890;5.982;2023-02-28T05:10:26;101488.94;;;3.30;56.40
36234;BME280;43467;50.890;5.982;2023-02-28T05:12:52;101486.31;;;3.32;56.82
36234;BME280;43467;50.890;5.982;2023-02-28T05:15:17;101475.84;;;3.25;56.57
36234;BME280;43467;50.890;5.982;2023-02-28T05:17:43;101488.06;;;3.36;56.81
36234;BME280;43467;50.890;5.982;2023-02-28T05:20:09;101488.03;;;3.28;57.30
36234;BME280;43467;50.890;5.982;2023-02-28T05:22:36;101485.41;;;3.23;56.92
36234;BME280;43467;50.890;5.982;2023-02-28T05:25:03;101486.28;;;3.21;57.38
36234;BME280;43467;50.890;5.982;2023-02-28T05:27:30;101488.88;;;3.16;57.40
36234;BME280;43467;50.890;5.982;2023-02-28T05:29:55;101478.34;;;3.07;58.00
36234;BME280;43467;50.890;5.982;2023-02-28T05:32:21;101483.59;;;3.04;57.78
36234;BME280;43467;50.890;5.982;2023-02-28T05:34:46;101481.84;;;3.05;57.52
36234;BME280;43467;50.890;5.982;2023-02-28T05:37:12;101482.66;;;2.93;58.12
36234;BME280;43467;50.890;5.982;2023-02-28T05:39:38;101483.50;;;2.94;58.47
36234;BME280;43467;50.890;5.982;2023-02-28T05:42:04;101488.72;;;2.85;58.37
36234;BME280;43467;50.890;5.982;2023-02-28T05:44:30;101495.69;;;2.87;58.32
36234;BME280;43467;50.890;5.982;2023-02-28T05:46:55;101494.81;;;2.85;58.58
36234;BME280;43467;50.890;5.982;2023-02-28T05:49:21;101488.69;;;2.80;58.54
36234;BME280;43467;50.890;5.982;2023-02-28T05:51:47;101487.78;;;2.78;58.91
36234;BME280;43467;50.890;5.982;2023-02-28T05:54:12;101480.84;;;2.77;58.80
36234;BME280;43467;50.890;5.982;2023-02-28T05:56:38;101492.16;;;2.79;58.64
36234;BME280;43467;50.890;5.982;2023-02-28T05:59:05;101493.03;;;2.79;58.83
36234;BME280;43467;50.890;5.982;2023-02-28T06:01:36;101493.00;;;2.78;58.76
36234;BME280;43467;50.890;5.982;2023-02-28T06:04:03;101493.84;;;2.71;59.23
36234;BME280;43467;50.890;5.982;2023-02-28T06:06:29;101485.97;;;2.65;59.39
36234;BME280;43467;50.890;5.982;2023-02-28T06:08:55;101486.84;;;2.61;59.43
36234;BME280;43467;50.890;5.982;2023-02-28T06:11:21;101481.56;;;2.58;59.08
36234;BME280;43467;50.890;5.982;2023-02-28T06:13:47;101486.75;;;2.53;59.66
36234;BME280;43467;50.890;5.982;2023-02-28T06:16:13;101497.22;;;2.53;59.55
36234;BME280;43467;50.890;5.982;2023-02-28T06:18:38;101495.47;;;2.51;59.70
36234;BME280;43467;50.890;5.982;2023-02-28T06:21:04;101492.81;;;2.49;59.22
36234;BME280;43467;50.890;5.982;2023-02-28T06:23:30;101506.78;;;2.51;59.25
36234;BME280;43467;50.890;5.982;2023-02-28T06:25:55;101508.56;;;2.52;59.72
36234;BME280;43467;50.890;5.982;2023-02-28T06:28:24;101505.94;;;2.54;59.40
36234;BME280;43467;50.890;5.982;2023-02-28T06:30:51;101514.69;;;2.62;58.88
36234;BME280;43467;50.890;5.982;2023-02-28T06:33:16;101500.75;;;2.61;58.80
36234;BME280;43467;50.890;5.982;2023-02-28T06:35:47;101511.16;;;2.57;59.00
36234;BME280;43467;50.890;5.982;2023-02-28T06:38:12;101522.47;;;2.53;59.33
36234;BME280;43467;50.890;5.982;2023-02-28T06:40:37;101512.03;;;2.54;58.67
36234;BME280;43467;50.890;5.982;2023-02-28T06:43:03;101512.00;;;2.50;58.69
36234;BME280;43467;50.890;5.982;2023-02-28T06:45:28;101483.16;;;2.36;58.85
36234;BME280;43467;50.890;5.982;2023-02-28T06:47:54;101525.94;;;2.49;58.98
36234;BME280;43467;50.890;5.982;2023-02-28T06:50:20;101525.06;;;2.50;58.90
36234;BME280;43467;50.890;5.982;2023-02-28T06:52:46;101532.06;;;2.51;58.59
36234;BME280;43467;50.890;5.982;2023-02-28T06:55:11;101535.53;;;2.51;58.25
36234;BME280;43467;50.890;5.982;2023-02-28T06:57:37;101537.22;;;2.43;59.25
36234;BME280;43467;50.890;5.982;2023-02-28T07:00:07;101529.38;;;2.45;58.55
36234;BME280;43467;50.890;5.982;2023-02-28T07:02:34;101539.06;;;2.55;58.85
36234;BME280;43467;50.890;5.982;2023-02-28T07:05:00;101544.31;;;2.58;58.49
36234;BME280;43467;50.890;5.982;2023-02-28T07:07:25;101547.78;;;2.57;58.16
36234;BME280;43467;50.890;5.982;2023-02-28T07:09:51;101552.19;;;2.61;57.73
36234;BME280;43467;50.890;5.982;2023-02-28T07:12:16;101555.69;;;2.63;57.41
36234;BME280;43467;50.890;5.982;2023-02-28T07:14:42;101556.59;;;2.69;57.02
36234;BME280;43467;50.890;5.982;2023-02-28T07:17:08;101548.75;;;2.71;56.99
36234;BME280;43467;50.890;5.982;2023-02-28T07:19:33;101552.25;;;2.70;56.91
36234;BME280;43467;50.890;5.982;2023-02-28T07:21:59;101552.34;;;2.80;57.04
36234;BME280;43467;50.890;5.982;2023-02-28T07:24:24;101546.22;;;2.83;56.25
36234;BME280;43467;50.890;5.982;2023-02-28T07:26:53;101559.31;;;2.83;56.07
36234;BME280;43467;50.890;5.982;2023-02-28T07:29:18;101549.75;;;2.90;56.48
36234;BME280;43467;50.890;5.982;2023-02-28T07:31:45;101551.53;;;2.94;55.93
36234;BME280;43467;50.890;5.982;2023-02-28T07:34:11;101551.53;;;2.94;55.79
36234;BME280;43467;50.890;5.982;2023-02-28T07:36:37;101553.28;;;2.98;55.49
36234;BME280;43467;50.890;5.982;2023-02-28T07:39:02;101534.94;;;2.90;55.73
36234;BME280;43467;50.890;5.982;2023-02-28T07:41:29;101556.81;;;3.03;55.58
36234;BME280;43467;50.890;5.982;2023-02-28T07:43:54;101548.97;;;3.00;55.32
36234;BME280;43467;50.890;5.982;2023-02-28T07:46:22;101539.34;;;2.96;55.40
36234;BME280;43467;50.890;5.982;2023-02-28T07:48:48;101539.34;;;2.93;55.65
36234;BME280;43467;50.890;5.982;2023-02-28T07:51:13;101551.53;;;2.95;55.31
36234;BME280;43467;50.890;5.982;2023-02-28T07:53:39;101548.09;;;2.99;54.99
36234;BME280;43467;50.890;5.982;2023-02-28T07:56:05;101549.84;;;3.03;55.47
36234;BME280;43467;50.890;5.982;2023-02-28T07:58:31;101550.75;;;3.08;55.32
36234;BME280;43467;50.890;5.982;2023-02-28T08:00:57;101543.75;;;3.01;54.54
36234;BME280;43467;50.890;5.982;2023-02-28T08:03:29;101553.38;;;3.10;54.52
36234;BME280;43467;50.890;5.982;2023-02-28T08:05:54;101558.59;;;3.10;54.07
36234;BME280;43467;50.890;5.982;2023-02-28T08:08:20;101557.75;;;3.12;53.71
36234;BME280;43467;50.890;5.982;2023-02-28T08:10:45;101560.34;;;3.11;54.01
36234;BME280;43467;50.890;5.982;2023-02-28T08:13:10;101560.38;;;3.14;53.93
36234;BME280;43467;50.890;5.982;2023-02-28T08:15:36;101567.41;;;3.22;53.57
36234;BME280;43467;50.890;5.982;2023-02-28T08:18:02;101556.06;;;3.20;53.19
36234;BME280;43467;50.890;5.982;2023-02-28T08:20:27;101557.84;;;3.31;53.27
36234;BME280;43467;50.890;5.982;2023-02-28T08:22:53;101564.84;;;3.35;52.91
36234;BME280;43467;50.890;5.982;2023-02-28T08:25:18;101562.25;;;3.39;52.60
36234;BME280;43467;50.890;5.982;2023-02-28T08:27:44;101565.75;;;3.43;52.69
36234;BME280;43467;50.890;5.982;2023-02-28T08:30:11;101570.16;;;3.50;51.90
36234;BME280;43467;50.890;5.982;2023-02-28T08:32:37;101567.53;;;3.51;51.90
36234;BME280;43467;50.890;5.982;2023-02-28T08:35:03;101564.91;;;3.48;51.44
36234;BME280;43467;50.890;5.982;2023-02-28T08:37:29;101569.22;;;3.39;51.91
36234;BME280;43467;50.890;5.982;2023-02-28T08:39:54;101568.34;;;3.32;51.64
36234;BME280;43467;50.890;5.982;2023-02-28T08:42:19;101570.13;;;3.44;51.61
36234;BME280;43467;50.890;5.982;2023-02-28T08:44:45;101561.41;;;3.51;51.34
36234;BME280;43467;50.890;5.982;2023-02-28T08:47:10;101566.69;;;3.55;51.23
36234;BME280;43467;50.890;5.982;2023-02-28T08:49:36;101567.59;;;3.65;50.86
36234;BME280;43467;50.890;5.982;2023-02-28T08:52:02;101563.28;;;3.73;50.86
36234;BME280;43467;50.890;5.982;2023-02-28T08:54:28;101550.13;;;3.64;50.01
36234;BME280;43467;50.890;5.982;2023-02-28T08:56:56;101558.91;;;3.75;49.63
36234;BME280;43467;50.890;5.982;2023-02-28T08:59:22;101562.41;;;3.80;49.40
36234;BME280;43467;50.890;5.982;2023-02-28T09:01:48;101560.66;;;3.79;48.93
36234;BME280;43467;50.890;5.982;2023-02-28T09:04:13;101557.19;;;3.79;47.92
36234;BME280;43467;50.890;5.982;2023-02-28T09:06:38;101560.69;;;3.88;48.26
36234;BME280;43467;50.890;5.982;2023-02-28T09:09:04;101562.44;;;3.89;47.57
36234;BME280;43467;50.890;5.982;2023-02-28T09:11:31;101569.44;;;3.90;47.96
36234;BME280;43467;50.890;5.982;2023-02-28T09:13:58;101568.53;;;3.88;47.61
36234;BME280;43467;50.890;5.982;2023-02-28T09:16:25;101562.44;;;3.85;47.30
36234;BME280;43467;50.890;5.982;2023-02-28T09:18:50;101558.94;;;3.83;47.15
36234;BME280;43467;50.890;5.982;2023-02-28T09:21:17;101561.59;;;3.90;47.25
36234;BME280;43467;50.890;5.982;2023-02-28T09:23:47;101555.47;;;3.94;46.03
36234;BME280;43467;50.890;5.982;2023-02-28T09:26:21;101561.59;;;4.05;46.12
36234;BME280;43467;50.890;5.982;2023-02-28T09:28:47;101555.50;;;4.09;45.49
36234;BME280;43467;50.890;5.982;2023-02-28T09:31:15;101552.03;;;4.07;44.82
36234;BME280;43467;50.890;5.982;2023-02-28T09:33:41;101548.50;;;4.10;44.96
36234;BME280;43467;50.890;5.982;2023-02-28T09:36:07;101549.38;;;4.04;45.09
36234;BME280;43467;50.890;5.982;2023-02-28T09:38:32;101552.03;;;4.15;44.83
36234;BME280;43467;50.890;5.982;2023-02-28T09:41:01;101536.28;;;4.09;43.92
36234;BME280;43467;50.890;5.982;2023-02-28T09:43:31;101544.16;;;4.18;44.37
36234;BME280;43467;50.890;5.982;2023-02-28T09:48:32;101530.19;;;4.22;42.47
36234;BME280;43467;50.890;5.982;2023-02-28T09:51:09;101531.94;;;4.31;43.08
36234;BME280;43467;50.890;5.982;2023-02-28T09:53:38;101537.16;;;4.37;42.53
36234;BME280;43467;50.890;5.982;2023-02-28T09:56:10;101535.44;;;4.36;41.27
36234;BME280;43467;50.890;5.982;2023-02-28T10:01:21;101538.03;;;4.40;40.76
36234;BME280;43467;50.890;5.982;2023-02-28T10:04:00;101546.78;;;4.38;40.39
36234;BME280;43467;50.890;5.982;2023-02-28T10:06:31;101543.28;;;4.33;39.26
36234;BME280;43467;50.890;5.982;2023-02-28T10:11:24;101549.44;;;4.47;38.92
36234;BME280;43467;50.890;5.982;2023-02-28T10:14:02;101543.28;;;4.42;38.88
36234;BME280;43467;50.890;5.982;2023-02-28T10:16:37;101549.44;;;4.44;38.69
36234;BME280;43467;50.890;5.982;2023-02-28T10:19:12;101538.91;;;4.41;38.84
36234;BME280;43467;50.890;5.982;2023-02-28T10:21:45;101552.03;;;4.53;38.37
36234;BME280;43467;50.890;5.982;2023-02-28T10:27:00;101540.66;;;4.54;38.38
36234;BME280;43467;50.890;5.982;2023-02-28T10:29:27;101533.69;;;4.59;38.41
36234;BME280;43467;50.890;5.982;2023-02-28T10:31:53;101532.81;;;4.60;37.77
36234;BME280;43467;50.890;5.982;2023-02-28T10:34:18;101536.31;;;4.60;38.50
36234;BME280;43467;50.890;5.982;2023-02-28T10:36:44;101548.53;;;4.66;37.83
36234;BME280;43467;50.890;5.982;2023-02-28T10:39:41;101535.41;;;4.66;36.54
36234;BME280;43467;50.890;5.982;2023-02-28T10:42:21;101535.44;;;4.63;37.55
36234;BME280;43467;50.890;5.982;2023-02-28T10:44:47;101535.44;;;4.67;37.70
36234;BME280;43467;50.890;5.982;2023-02-28T10:47:17;101542.41;;;4.73;36.93
36234;BME280;43467;50.890;5.982;2023-02-28T10:49:50;101530.16;;;4.78;36.14
36234;BME280;43467;50.890;5.982;2023-02-28T10:52:38;101528.41;;;4.77;35.83
36234;BME280;43467;50.890;5.982;2023-02-28T10:55:24;101535.38;;;4.96;35.46
36234;BME280;43467;50.890;5.982;2023-02-28T10:57:51;101524.88;;;4.98;35.48
36234;BME280;43467;50.890;5.982;2023-02-28T11:02:47;101530.13;;;4.96;35.67
36234;BME280;43467;50.890;5.982;2023-02-28T11:07:53;101526.66;;;4.88;35.80
36234;BME280;43467;50.890;5.982;2023-02-28T11:10:21;101517.03;;;4.83;35.07
36234;BME280;43467;50.890;5.982;2023-02-28T11:12:49;101522.25;;;4.90;36.00
36234;BME280;43467;50.890;5.982;2023-02-28T11:18:03;101517.91;;;4.82;35.31
36234;BME280;43467;50.890;5.982;2023-02-28T11:20:34;101508.31;;;4.79;36.15
36234;BME280;43467;50.890;5.982;2023-02-28T11:23:01;101510.91;;;4.78;35.56
36234;BME280;43467;50.890;5.982;2023-02-28T11:25:37;101509.16;;;4.87;36.63
36234;BME280;43467;50.890;5.982;2023-02-28T11:28:43;101515.28;;;4.86;35.82
36234;BME280;43467;50.890;5.982;2023-02-28T11:33:51;101507.41;;;4.83;36.45
36234;BME280;43467;50.890;5.982;2023-02-28T11:36:23;101502.16;;;4.83;35.76
36234;BME280;43467;50.890;5.982;2023-02-28T11:38:55;101507.44;;;4.74;35.53
36234;BME280;43467;50.890;5.982;2023-02-28T11:49:37;101511.75;;;4.98;35.92
36234;BME280;43467;50.890;5.982;2023-02-28T12:00:33;101516.06;;;5.14;36.36
36234;BME280;43467;50.890;5.982;2023-02-28T12:24:59;101491.41;;;5.57;35.19
36234;BME280;43467;50.890;5.982;2023-02-28T12:27:30;101499.25;;;5.59;35.25
36234;BME280;43467;50.890;5.982;2023-02-28T12:30:02;101498.31;;;5.71;35.29
36234;BME280;43467;50.890;5.982;2023-02-28T12:32:52;101493.06;;;5.71;35.43
36234;BME280;43467;50.890;5.982;2023-02-28T12:35:28;101488.72;;;5.63;35.48
36234;BME280;43467;50.890;5.982;2023-02-28T12:38:16;101489.59;;;5.70;35.37
36234;BME280;43467;50.890;5.982;2023-02-28T12:40:49;101483.34;;;5.85;36.58
36234;BME280;43467;50.890;5.982;2023-02-28T12:43:17;101473.69;;;5.94;36.57
36234;BME280;43467;50.890;5.982;2023-02-28T12:45:48;101481.47;;;6.03;36.03
36234;BME280;43467;50.890;5.982;2023-02-28T12:48:21;101469.34;;;5.81;35.67
36234;BME280;43467;50.890;5.982;2023-02-28T12:50:50;101482.53;;;5.72;35.83
36234;BME280;43467;50.890;5.982;2023-02-28T12:53:25;101477.28;;;5.74;37.09
36234;BME280;43467;50.890;5.982;2023-02-28T12:58:45;101471.97;;;5.87;36.64
36234;BME280;43467;50.890;5.982;2023-02-28T13:06:40;101454.31;;;6.04;36.83
36234;BME280;43467;50.890;5.982;2023-02-28T13:09:16;101463.09;;;6.05;37.53
36234;BME280;43467;50.890;5.982;2023-02-28T13:11:47;101449.13;;;5.98;37.56
36234;BME280;43467;50.890;5.982;2023-02-28T13:19:59;101456.13;;;5.96;37.38
36234;BME280;43467;50.890;5.982;2023-02-28T13:24:52;101447.38;;;5.97;37.92
36234;BME280;43467;50.890;5.982;2023-02-28T13:29:43;101439.31;;;6.16;37.28
36234;BME280;43467;50.890;5.982;2023-02-28T13:34:42;101440.16;;;6.22;37.64
36234;BME280;43467;50.890;5.982;2023-02-28T13:39:54;101443.78;;;6.11;36.95
36234;BME280;43467;50.890;5.982;2023-02-28T13:47:31;101429.59;;;6.25;38.02
36234;BME280;43467;50.890;5.982;2023-02-28T13:55:29;101431.31;;;6.31;37.52
36234;BME280;43467;50.890;5.982;2023-02-28T14:00:46;101421.69;;;6.28;37.09
36234;BME280;43467;50.890;5.982;2023-02-28T14:03:33;101421.75;;;6.22;37.19
36234;BME280;43467;50.890;5.982;2023-02-28T14:09:15;101420.69;;;6.43;37.32
36234;BME280;43467;50.890;5.982;2023-02-28T14:11:44;101416.16;;;6.54;37.34
36234;BME280;43467;50.890;5.982;2023-02-28T14:17:05;101420.47;;;6.61;37.60
36234;BME280;43467;50.890;5.982;2023-02-28T14:19:34;101421.25;;;6.71;37.17
36234;BME280;43467;50.890;5.982;2023-02-28T14:27:36;101409.16;;;6.54;36.16
36234;BME280;43467;50.890;5.982;2023-02-28T14:30:36;101393.41;;;6.50;36.35
36234;BME280;43467;50.890;5.982;2023-02-28T14:33:23;101407.19;;;6.73;36.21
36234;BME280;43467;50.890;5.982;2023-02-28T14:36:04;101399.19;;;6.84;36.35
36234;BME280;43467;50.890;5.982;2023-02-28T14:38:54;101401.66;;;6.94;36.11
36234;BME280;43467;50.890;5.982;2023-02-28T14:41:40;101405.97;;;7.01;36.17
36234;BME280;43467;50.890;5.982;2023-02-28T14:44:23;101399.81;;;7.04;35.68
36234;BME280;43467;50.890;5.982;2023-02-28T14:46:55;101404.22;;;7.02;36.28
36234;BME280;43467;50.890;5.982;2023-02-28T14:49:41;101408.78;;;6.85;36.20
36234;BME280;43467;50.890;5.982;2023-02-28T14:52:19;101403.38;;;6.97;36.38
36234;BME280;43467;50.890;5.982;2023-02-28T14:54:45;101399.81;;;7.01;36.05
36234;BME280;43467;50.890;5.982;2023-02-28T15:00:16;101395.44;;;7.03;36.65
36234;BME280;43467;50.890;5.982;2023-02-28T15:02:44;101380.41;;;7.10;36.84
36234;BME280;43467;50.890;5.982;2023-02-28T15:07:42;101395.31;;;7.11;36.05
36234;BME280;43467;50.890;5.982;2023-02-28T15:12:40;101390.31;;;6.91;35.93
36234;BME280;43467;50.890;5.982;2023-02-28T15:15:15;101386.75;;;6.96;36.13
36234;BME280;43467;50.890;5.982;2023-02-28T15:17:44;101379.69;;;7.00;36.01
36234;BME280;43467;50.890;5.982;2023-02-28T15:20:12;101377.13;;;6.92;35.98
36234;BME280;43467;50.890;5.982;2023-02-28T15:22:39;101386.69;;;6.99;35.87
36234;BME280;43467;50.890;5.982;2023-02-28T15:25:06;101377.03;;;7.00;36.06
36234;BME280;43467;50.890;5.982;2023-02-28T15:27:33;101372.56;;;7.07;36.41
36234;BME280;43467;50.890;5.982;2023-02-28T15:30:08;101369.91;;;7.07;36.27